createdAt,value
2022-11-20T00:01:34.353Z,88.94
2022-11-20T00:04:02.657Z,88.56
2022-11-20T00:06:30.711Z,88.50
2022-11-20T00:09:01.394Z,88.58
2022-11-20T00:11:30.811Z,88.71
2022-11-20T00:14:01.761Z,88.98
2022-11-20T00:16:32.869Z,89.34
2022-11-20T00:19:01.042Z,89.60
2022-11-20T00:21:30.841Z,90.09
2022-11-20T00:23:59.429Z,89.93
2022-11-20T00:26:28.725Z,89.98
2022-11-20T00:29:02.704Z,89.63
2022-11-20T00:31:31.685Z,89.85
2022-11-20T00:33:59.592Z,89.69
2022-11-20T00:36:29.752Z,89.94
2022-11-20T00:38:59.348Z,89.82
2022-11-20T00:41:29.315Z,89.74
2022-11-20T00:43:58.075Z,90.09
2022-11-20T00:46:28.612Z,89.75
2022-11-20T00:48:56.675Z,89.71
2022-11-20T00:51:26.879Z,89.60
2022-11-20T00:54:01.157Z,89.95
2022-11-20T00:56:29.633Z,89.97
2022-11-20T00:59:02.046Z,89.97
2022-11-20T01:01:31.036Z,89.58
2022-11-20T01:04:01.724Z,89.55
2022-11-20T01:06:34.919Z,89.39
2022-11-20T01:09:10.464Z,89.00
2022-11-20T01:11:40.959Z,88.87
2022-11-20T01:14:17.045Z,89.63
2022-11-20T01:16:48.347Z,89.22
2022-11-20T01:19:20.105Z,89.59
2022-11-20T01:21:54.093Z,89.74
2022-11-20T01:24:22.988Z,89.35
2022-11-20T01:26:52.090Z,89.19
2022-11-20T01:29:23.296Z,89.56
2022-11-20T01:31:53.631Z,89.94
2022-11-20T01:34:23.585Z,90.19
2022-11-20T01:36:52.584Z,90.12
2022-11-20T01:39:26.008Z,89.96
2022-11-20T01:42:15.949Z,90.11
2022-11-20T01:44:57.939Z,89.69
2022-11-20T01:47:32.533Z,89.68
2022-11-20T01:50:06.815Z,89.61
2022-11-20T01:52:40.757Z,89.57
2022-11-20T01:55:10.468Z,89.68
2022-11-20T01:57:39.959Z,89.45
2022-11-20T02:00:14.555Z,89.24
2022-11-20T02:02:46.674Z,89.35
2022-11-20T02:05:37.041Z,89.32
2022-11-20T02:08:07.617Z,89.41
2022-11-20T02:10:36.452Z,89.66
2022-11-20T02:13:23.502Z,89.75
2022-11-20T02:15:51.511Z,89.56
2022-11-20T02:18:21.281Z,89.74
2022-11-20T02:20:54.404Z,89.92
2022-11-20T02:23:27.606Z,89.46
2022-11-20T02:25:56.897Z,89.57
2022-11-20T02:28:25.200Z,89.71
2022-11-20T02:30:53.026Z,89.92
2022-11-20T02:33:20.995Z,89.78
2022-11-20T02:35:48.919Z,90.20
2022-11-20T02:38:16.717Z,90.32
2022-11-20T02:40:44.882Z,90.40
2022-11-20T02:43:15.447Z,90.28
2022-11-20T02:45:43.503Z,90.23
2022-11-20T02:48:11.397Z,90.23
2022-11-20T02:50:41.143Z,90.15
2022-11-20T02:53:09.137Z,90.07
2022-11-20T02:55:37.420Z,90.07
2022-11-20T02:58:05.494Z,90.28
2022-11-20T03:00:33.651Z,90.02
2022-11-20T03:03:01.468Z,90.10
2022-11-20T03:05:29.364Z,89.64
2022-11-20T03:07:57.194Z,89.68
2022-11-20T03:10:25.068Z,89.80
2022-11-20T03:12:56.784Z,89.72
2022-11-20T03:15:25.055Z,89.80
2022-11-20T03:17:56.745Z,89.53
2022-11-20T03:20:24.874Z,89.37
2022-11-20T03:22:55.098Z,89.14
2022-11-20T03:25:23.578Z,89.21
2022-11-20T03:27:52.491Z,89.40
2022-11-20T03:30:20.271Z,89.43
2022-11-20T03:32:48.060Z,89.52
2022-11-20T03:35:15.983Z,90.07
2022-11-20T03:37:43.781Z,90.66
2022-11-20T03:40:11.739Z,90.71
2022-11-20T03:42:48.944Z,91.05
2022-11-20T03:45:19.147Z,90.50
2022-11-20T03:47:47.444Z,90.04
2022-11-20T03:50:15.754Z,90.08
2022-11-20T03:52:43.952Z,89.89
2022-11-20T03:55:11.874Z,90.20
2022-11-20T03:57:42.354Z,90.27
2022-11-20T04:00:15.697Z,90.32
2022-11-20T04:02:43.737Z,90.53
2022-11-20T04:05:11.829Z,90.23
2022-11-20T04:07:39.728Z,90.47
2022-11-20T04:10:09.827Z,90.46
2022-11-20T04:12:37.767Z,90.58
2022-11-20T04:15:05.848Z,90.47
2022-11-20T04:17:33.844Z,90.37
2022-11-20T04:20:02.295Z,90.51
2022-11-20T04:22:30.311Z,90.62
2022-11-20T04:24:58.203Z,90.50
2022-11-20T04:27:26.084Z,90.35
2022-11-20T04:29:53.872Z,90.58
2022-11-20T04:32:23.545Z,90.28
2022-11-20T04:34:51.511Z,90.15
2022-11-20T04:37:21.840Z,90.37
2022-11-20T04:39:49.813Z,90.45
2022-11-20T04:42:29.545Z,90.10
2022-11-20T04:44:58.999Z,90.06
2022-11-20T04:47:26.970Z,90.25
2022-11-20T04:49:54.926Z,90.89
2022-11-20T04:52:22.815Z,90.54
2022-11-20T04:54:53.825Z,90.63
2022-11-20T04:57:21.875Z,90.55
2022-11-20T04:59:49.728Z,90.36
2022-11-20T05:02:18.118Z,90.28
2022-11-20T05:04:45.963Z,90.23
2022-11-20T05:07:13.791Z,90.15
2022-11-20T05:09:41.688Z,90.32
2022-11-20T05:12:10.055Z,90.54
2022-11-20T05:14:37.997Z,90.57
2022-11-20T05:17:05.917Z,90.75
2022-11-20T05:19:33.812Z,90.96
2022-11-20T05:22:01.677Z,90.60
2022-11-20T05:24:29.499Z,89.99
2022-11-20T05:26:57.293Z,90.15
2022-11-20T05:29:25.094Z,90.33
2022-11-20T05:31:52.957Z,90.45
2022-11-20T05:34:20.813Z,90.25
2022-11-20T05:36:48.606Z,90.26
2022-11-20T05:39:16.598Z,90.41
2022-11-20T05:41:44.407Z,90.58
2022-11-20T05:44:12.423Z,90.68
2022-11-20T05:46:40.284Z,90.72
2022-11-20T05:49:08.079Z,90.93
2022-11-20T05:51:35.880Z,90.68
2022-11-20T05:54:03.703Z,90.32
2022-11-20T05:56:31.690Z,90.32
2022-11-20T05:58:59.541Z,90.66
2022-11-20T06:01:27.546Z,90.45
2022-11-20T06:03:55.856Z,90.12
2022-11-20T06:06:24.316Z,90.15
2022-11-20T06:08:52.254Z,90.48
2022-11-20T06:11:20.267Z,90.65
2022-11-20T06:13:48.199Z,90.86
2022-11-20T06:16:19.481Z,91.02
2022-11-20T06:18:48.048Z,90.83
2022-11-20T06:21:21.419Z,90.66
2022-11-20T06:23:50.699Z,90.83
2022-11-20T06:26:21.726Z,90.99
2022-11-20T06:28:49.739Z,91.44
2022-11-20T06:31:19.809Z,91.88
2022-11-20T06:33:48.389Z,91.99
2022-11-20T06:36:19.538Z,91.71
2022-11-20T06:38:47.835Z,91.74
2022-11-20T06:41:18.654Z,91.50
2022-11-20T06:43:46.785Z,91.42
2022-11-20T06:46:18.633Z,91.24
2022-11-20T06:48:48.478Z,91.24
2022-11-20T06:51:17.488Z,91.56
2022-11-20T06:53:46.104Z,91.37
2022-11-20T06:56:14.374Z,91.30
2022-11-20T06:58:42.520Z,91.38
2022-11-20T07:01:12.563Z,91.31
2022-11-20T07:03:41.367Z,90.85
2022-11-20T07:06:09.847Z,90.44
2022-11-20T07:08:37.840Z,90.65
2022-11-20T07:11:07.933Z,90.73
2022-11-20T07:13:35.902Z,91.10
2022-11-20T07:16:07.709Z,91.13
2022-11-20T07:18:36.705Z,91.40
2022-11-20T07:21:07.161Z,91.33
2022-11-20T07:23:35.436Z,91.32
2022-11-20T07:26:08.412Z,91.40
2022-11-20T07:28:37.567Z,91.30
2022-11-20T07:31:07.825Z,91.10
2022-11-20T07:33:36.129Z,91.06
2022-11-20T07:36:04.687Z,91.14
2022-11-20T07:38:32.559Z,91.01
2022-11-20T07:41:02.634Z,90.48
2022-11-20T07:43:30.934Z,90.40
2022-11-20T07:45:59.992Z,90.52
2022-11-20T07:48:28.009Z,90.55
2022-11-20T07:50:59.352Z,90.57
2022-11-20T07:53:27.312Z,90.58
2022-11-20T07:55:55.232Z,90.41
2022-11-20T07:58:23.095Z,90.71
2022-11-20T08:00:51.304Z,90.52
2022-11-20T08:03:24.329Z,90.47
2022-11-20T08:05:53.529Z,90.25
2022-11-20T08:08:22.769Z,90.19
2022-11-20T08:10:50.689Z,90.36
2022-11-20T08:13:36.924Z,90.55
2022-11-20T08:16:05.104Z,91.16
2022-11-20T08:18:33.269Z,91.33
2022-11-20T08:21:05.788Z,91.27
2022-11-20T08:23:33.578Z,91.10
2022-11-20T08:26:01.467Z,91.20
2022-11-20T08:28:29.468Z,90.96
2022-11-20T08:31:01.580Z,90.93
2022-11-20T08:33:29.518Z,90.91
2022-11-20T08:36:04.657Z,90.91
2022-11-20T08:38:33.387Z,90.92
2022-11-20T08:41:21.412Z,90.90
2022-11-20T08:43:49.520Z,90.60
2022-11-20T08:46:17.903Z,90.95
2022-11-20T08:48:46.257Z,90.88
2022-11-20T08:51:14.106Z,91.01
2022-11-20T08:53:42.241Z,91.01
2022-11-20T08:56:13.027Z,91.21
2022-11-20T08:59:09.878Z,91.29
2022-11-20T09:01:30.443Z,91.49
2022-11-20T09:04:00.547Z,91.25
2022-11-20T09:06:28.489Z,91.34
2022-11-20T09:08:57.378Z,91.38
2022-11-20T09:11:27.539Z,91.03
2022-11-20T09:13:55.383Z,90.87
2022-11-20T09:16:23.181Z,90.94
2022-11-20T09:19:07.295Z,90.70
2022-11-20T09:21:39.857Z,90.48
2022-11-20T09:24:07.979Z,90.55
2022-11-20T09:26:35.764Z,90.85
2022-11-20T09:29:03.620Z,90.95
2022-11-20T09:31:31.520Z,91.05
2022-11-20T09:33:59.335Z,90.98
2022-11-20T09:36:27.592Z,91.12
2022-11-20T09:38:57.293Z,91.19
2022-11-20T09:41:52.720Z,91.13
2022-11-20T09:44:51.030Z,90.91
2022-11-20T09:47:29.648Z,90.68
2022-11-20T09:50:21.043Z,90.90
2022-11-20T09:53:26.862Z,90.88
2022-11-20T09:55:56.686Z,90.87
2022-11-20T09:58:40.697Z,90.20
2022-11-20T10:01:20.839Z,89.66
2022-11-20T10:04:06.084Z,89.54
2022-11-20T10:06:39.009Z,90.11
2022-11-20T10:09:12.954Z,90.30
2022-11-20T10:11:58.925Z,90.04
2022-11-20T10:14:40.283Z,90.44
2022-11-20T10:17:21.170Z,90.82
2022-11-20T10:19:56.578Z,90.87
2022-11-20T10:22:57.713Z,90.06
2022-11-20T10:25:29.753Z,89.56
2022-11-20T10:28:18.330Z,89.96
2022-11-20T10:30:50.410Z,90.27
2022-11-20T10:33:23.845Z,89.78
2022-11-20T10:36:13.633Z,89.16
2022-11-20T10:38:46.180Z,89.82
2022-11-20T10:41:31.938Z,90.22
2022-11-20T10:44:38.874Z,89.89
2022-11-20T10:47:15.214Z,90.12
2022-11-20T10:49:47.129Z,90.16
2022-11-20T10:52:33.845Z,90.05
2022-11-20T10:55:34.192Z,89.85
2022-11-20T10:58:15.368Z,90.01
2022-11-20T11:00:43.366Z,90.04
2022-11-20T11:03:24.991Z,90.13
2022-11-20T11:06:09.120Z,89.91
2022-11-20T11:08:41.199Z,89.65
2022-11-20T11:11:25.499Z,89.78
2022-11-20T11:13:53.349Z,89.47
2022-11-20T11:16:24.170Z,88.79
2022-11-20T11:18:52.782Z,88.55
2022-11-20T11:21:27.706Z,88.77
2022-11-20T11:24:19.855Z,89.03
2022-11-20T11:27:00.181Z,89.40
2022-11-20T11:29:30.593Z,88.24
2022-11-20T11:32:21.815Z,87.66
2022-11-20T11:35:26.559Z,88.20
2022-11-20T11:38:05.266Z,88.45
2022-11-20T11:40:36.183Z,88.63
2022-11-20T11:43:27.989Z,88.46
2022-11-20T11:45:56.720Z,88.53
2022-11-20T11:48:24.501Z,89.21
2022-11-20T11:50:53.234Z,88.97
2022-11-20T11:53:24.073Z,88.38
2022-11-20T11:55:55.651Z,88.97
2022-11-20T11:58:36.105Z,88.74
2022-11-20T12:01:19.212Z,89.03
2022-11-20T12:04:00.380Z,89.08
2022-11-20T12:06:32.566Z,88.82
2022-11-20T12:09:02.950Z,88.59
2022-11-20T12:11:38.588Z,88.99
2022-11-20T12:14:26.385Z,88.77
2022-11-20T12:16:57.831Z,88.31
2022-11-20T12:19:25.956Z,88.34
2022-11-20T12:22:03.353Z,88.53
2022-11-20T12:24:44.937Z,88.59
2022-11-20T12:27:34.632Z,88.10
2022-11-20T12:30:05.879Z,88.42
2022-11-20T12:32:42.700Z,88.64
2022-11-20T12:35:48.444Z,88.78
2022-11-20T12:38:31.681Z,88.83
2022-11-20T12:41:05.516Z,88.59
2022-11-20T12:44:24.895Z,88.53
2022-11-20T12:47:15.660Z,88.47
2022-11-20T12:50:06.335Z,88.71
2022-11-20T12:52:57.952Z,88.57
2022-11-20T12:55:37.656Z,88.42
2022-11-20T12:58:36.823Z,88.09
2022-11-20T13:01:48.824Z,88.49
2022-11-20T13:04:43.959Z,88.96
2022-11-20T13:07:15.606Z,89.04
2022-11-20T13:09:49.581Z,88.80
2022-11-20T13:12:19.993Z,88.70
2022-11-20T13:14:59.894Z,88.81
2022-11-20T13:17:43.879Z,89.39
2022-11-20T13:20:18.281Z,89.49
2022-11-20T13:22:52.838Z,89.66
2022-11-20T13:25:34.640Z,89.65
2022-11-20T13:28:11.657Z,89.59
2022-11-20T13:30:52.430Z,89.28
2022-11-20T13:33:40.172Z,89.23
2022-11-20T13:36:22.563Z,89.02
2022-11-20T13:38:52.604Z,88.79
2022-11-20T13:41:29.473Z,88.88
2022-11-20T13:44:24.628Z,88.83
2022-11-20T13:46:52.733Z,88.95
2022-11-20T13:49:34.312Z,88.79
2022-11-20T13:52:29.929Z,88.80
2022-11-20T13:55:27.478Z,88.85
2022-11-20T13:58:00.969Z,88.76
2022-11-20T14:00:28.964Z,88.80
2022-11-20T14:03:02.232Z,88.50
2022-11-20T14:05:35.791Z,88.23
2022-11-20T14:08:07.141Z,88.50
2022-11-20T14:10:35.026Z,88.71
2022-11-20T14:13:22.114Z,88.27
2022-11-20T14:15:58.313Z,88.31
2022-11-20T14:18:28.447Z,88.69
2022-11-20T14:20:56.308Z,88.67
2022-11-20T14:23:30.170Z,88.70
2022-11-20T14:25:58.955Z,88.64
2022-11-20T14:28:28.630Z,88.13
2022-11-20T14:30:57.890Z,88.35
2022-11-20T14:33:27.919Z,88.87
2022-11-20T14:35:58.513Z,88.94
2022-11-20T14:38:28.950Z,88.78
2022-11-20T14:41:08.658Z,88.80
2022-11-20T14:43:38.769Z,88.98
2022-11-20T14:46:09.967Z,88.80
2022-11-20T14:48:48.526Z,88.32
2022-11-20T14:51:43.736Z,88.20
2022-11-20T14:54:15.281Z,88.46
2022-11-20T14:56:54.590Z,88.55
2022-11-20T14:59:30.832Z,88.72
2022-11-20T15:02:13.171Z,88.54
2022-11-20T15:04:49.004Z,88.96
2022-11-20T15:07:29.275Z,89.33
2022-11-20T15:10:13.477Z,89.33
2022-11-20T15:12:51.960Z,89.44
2022-11-20T15:15:34.664Z,89.60
2022-11-20T15:18:03.206Z,89.53
2022-11-20T15:20:33.562Z,89.29
2022-11-20T15:23:01.502Z,89.08
2022-11-20T15:25:29.497Z,88.73
2022-11-20T15:27:58.143Z,88.87
2022-11-20T15:30:26.288Z,89.18
2022-11-20T15:32:54.135Z,89.11
2022-11-20T15:35:22.113Z,89.36
2022-11-20T15:37:50.094Z,88.97
2022-11-20T15:40:17.977Z,88.63
2022-11-20T15:43:05.840Z,88.41
2022-11-20T15:45:57.871Z,88.15
2022-11-20T15:48:32.876Z,88.05
2022-11-20T15:51:13.798Z,88.11
2022-11-20T15:53:43.030Z,88.23
2022-11-20T15:56:13.806Z,88.19
2022-11-20T15:58:42.291Z,88.37
2022-11-20T16:01:16.058Z,88.57
2022-11-20T16:03:44.392Z,88.65
2022-11-20T16:06:12.259Z,88.78
2022-11-20T16:08:40.324Z,89.07
2022-11-20T16:11:08.655Z,88.88
2022-11-20T16:13:55.632Z,88.82
2022-11-20T16:16:32.626Z,88.91
2022-11-20T16:19:01.290Z,89.02
2022-11-20T16:21:32.516Z,89.04
2022-11-20T16:24:03.534Z,88.89
2022-11-20T16:26:31.728Z,88.61
2022-11-20T16:29:00.490Z,88.50
2022-11-20T16:31:28.331Z,88.36
2022-11-20T16:33:58.058Z,88.73
2022-11-20T16:36:28.411Z,88.82
2022-11-20T16:38:58.476Z,89.03
2022-11-20T16:41:29.057Z,88.68
2022-11-20T16:43:59.841Z,88.85
2022-11-20T16:46:30.501Z,88.79
2022-11-20T16:49:06.607Z,89.15
2022-11-20T16:51:36.404Z,89.10
2022-11-20T16:54:09.270Z,89.30
2022-11-20T16:56:37.462Z,89.08
2022-11-20T16:59:07.471Z,89.12
2022-11-20T17:01:38.648Z,89.62
2022-11-20T17:04:07.592Z,89.19
2022-11-20T17:06:38.135Z,89.30
2022-11-20T17:09:07.026Z,89.31
2022-11-20T17:11:35.053Z,89.64
2022-11-20T17:14:09.318Z,89.55
2022-11-20T17:16:38.688Z,89.81
2022-11-20T17:19:06.914Z,89.71
2022-11-20T17:21:36.420Z,89.56
2022-11-20T17:24:06.751Z,89.97
2022-11-20T17:26:37.138Z,89.74
2022-11-20T17:29:14.028Z,89.56
2022-11-20T17:31:42.485Z,89.53
2022-11-20T17:34:15.265Z,89.53
2022-11-20T17:36:46.953Z,89.69
2022-11-20T17:39:16.652Z,89.95
2022-11-20T17:41:45.460Z,89.81
2022-11-20T17:44:13.541Z,89.73
2022-11-20T17:46:41.487Z,89.84
2022-11-20T17:49:09.269Z,89.95
2022-11-20T17:51:37.180Z,89.60
2022-11-20T17:54:07.730Z,89.35
2022-11-20T17:56:54.838Z,89.27
2022-11-20T17:59:24.544Z,89.30
2022-11-20T18:01:52.372Z,89.55
2022-11-20T18:04:20.737Z,89.20
2022-11-20T18:06:48.595Z,89.07
2022-11-20T18:09:16.676Z,88.93
2022-11-20T18:11:44.666Z,88.97
2022-11-20T18:14:32.406Z,88.80
2022-11-20T18:17:09.869Z,88.56
2022-11-20T18:19:55.696Z,88.78
2022-11-20T18:22:31.773Z,88.69
2022-11-20T18:24:59.705Z,88.93
2022-11-20T18:27:27.602Z,88.95
2022-11-20T18:29:55.718Z,89.18
2022-11-20T18:32:27.584Z,89.22
2022-11-20T18:34:55.527Z,89.37
2022-11-20T18:37:23.636Z,89.45
2022-11-20T18:39:51.878Z,89.49
2022-11-20T18:42:38.379Z,89.32
2022-11-20T18:45:06.744Z,89.21
2022-11-20T18:47:40.266Z,89.53
2022-11-20T18:50:09.142Z,89.56
2022-11-20T18:52:44.809Z,89.88
2022-11-20T18:55:13.436Z,89.90
2022-11-20T18:57:41.390Z,89.94
2022-11-20T19:00:10.332Z,89.88
2022-11-20T19:02:42.033Z,89.64
2022-11-20T19:05:12.347Z,89.48
2022-11-20T19:07:40.774Z,89.41
2022-11-20T19:10:08.872Z,89.68
2022-11-20T19:12:36.923Z,89.81
2022-11-20T19:15:05.296Z,89.88
2022-11-20T19:17:34.113Z,89.85
2022-11-20T19:20:02.042Z,89.83
2022-11-20T19:22:31.937Z,89.92
2022-11-20T19:25:00.060Z,90.11
2022-11-20T19:27:27.903Z,89.59
2022-11-20T19:30:03.263Z,89.30
2022-11-20T19:32:32.769Z,89.28
2022-11-20T19:35:01.105Z,89.42
2022-11-20T19:37:29.075Z,89.65
2022-11-20T19:39:59.682Z,89.76
2022-11-20T19:42:27.602Z,89.31
2022-11-20T19:44:55.727Z,88.92
2022-11-20T19:47:35.423Z,88.67
2022-11-20T19:50:13.103Z,88.98
2022-11-20T19:52:41.023Z,88.81
2022-11-20T19:55:10.195Z,88.90
2022-11-20T19:57:38.293Z,89.07
2022-11-20T20:00:06.824Z,89.38
2022-11-20T20:02:34.757Z,89.42
2022-11-20T20:05:02.623Z,89.24
2022-11-20T20:07:30.511Z,89.07
2022-11-20T20:09:58.404Z,88.88
2022-11-20T20:12:26.210Z,88.82
2022-11-20T20:14:54.082Z,89.05
2022-11-20T20:17:21.876Z,89.15
2022-11-20T20:19:49.728Z,88.68
2022-11-20T20:22:17.788Z,88.67
2022-11-20T20:24:45.604Z,88.84
2022-11-20T20:27:13.490Z,88.61
2022-11-20T20:29:41.295Z,88.66
2022-11-20T20:32:09.237Z,88.48
2022-11-20T20:34:37.141Z,88.76
2022-11-20T20:37:05.295Z,88.87
2022-11-20T20:39:33.318Z,88.64
2022-11-20T20:42:01.181Z,88.86
2022-11-20T20:44:47.643Z,88.88
2022-11-20T20:47:15.536Z,88.90
2022-11-20T20:49:43.385Z,88.90
2022-11-20T20:52:11.267Z,89.01
2022-11-20T20:54:41.484Z,89.16
2022-11-20T20:57:09.344Z,88.68
2022-11-20T20:59:37.278Z,88.43
2022-11-20T21:02:05.340Z,88.67
2022-11-20T21:04:33.963Z,89.05
2022-11-20T21:07:01.799Z,88.89
2022-11-20T21:09:29.746Z,88.54
2022-11-20T21:12:00.433Z,88.76
2022-11-20T21:14:28.224Z,88.81
2022-11-20T21:16:56.231Z,89.11
2022-11-20T21:19:24.230Z,89.43
2022-11-20T21:22:03.048Z,89.47
2022-11-20T21:24:33.551Z,89.44
2022-11-20T21:27:03.806Z,89.60
2022-11-20T21:29:31.956Z,89.21
2022-11-20T21:31:59.869Z,89.36
2022-11-20T21:34:27.932Z,89.45
2022-11-20T21:36:55.837Z,89.56
2022-11-20T21:39:23.763Z,89.19
2022-11-20T21:41:51.588Z,89.57
2022-11-20T21:44:34.822Z,89.34
2022-11-20T21:47:02.756Z,89.58
2022-11-20T21:49:30.653Z,89.73
2022-11-20T21:51:58.654Z,89.65
2022-11-20T21:54:26.803Z,89.66
2022-11-20T21:56:55.104Z,89.92
2022-11-20T21:59:23.723Z,89.39
2022-11-20T22:01:51.775Z,89.55
2022-11-20T22:04:20.339Z,89.70
2022-11-20T22:06:48.786Z,89.61
2022-11-20T22:09:16.812Z,89.46
2022-11-20T22:11:44.674Z,89.68
2022-11-20T22:14:21.649Z,89.55
2022-11-20T22:16:51.507Z,89.51
2022-11-20T22:19:20.821Z,89.51
2022-11-20T22:21:50.746Z,89.73
2022-11-20T22:24:21.100Z,89.85
2022-11-20T22:26:49.980Z,89.84
2022-11-20T22:29:21.110Z,89.74
2022-11-20T22:31:52.140Z,89.63
2022-11-20T22:34:20.021Z,89.82
2022-11-20T22:36:47.912Z,89.94
2022-11-20T22:39:15.907Z,89.89
2022-11-20T22:41:43.738Z,89.87
2022-11-20T22:44:15.746Z,89.50
2022-11-20T22:46:43.597Z,89.80
2022-11-20T22:49:11.534Z,89.44
2022-11-20T22:51:41.630Z,89.22
2022-11-20T22:54:12.080Z,89.03
2022-11-20T22:56:40.784Z,89.17
2022-11-20T22:59:08.796Z,89.38
2022-11-20T23:01:38.149Z,89.09
2022-11-20T23:04:09.899Z,89.34
2022-11-20T23:06:37.871Z,89.45
2022-11-20T23:09:07.700Z,89.39
2022-11-20T23:11:36.360Z,89.25
2022-11-20T23:14:12.510Z,88.83
2022-11-20T23:16:40.820Z,88.86
2022-11-20T23:19:11.651Z,89.22
2022-11-20T23:21:40.908Z,89.23
2022-11-20T23:24:09.864Z,89.18
2022-11-20T23:26:39.672Z,89.26
2022-11-20T23:29:08.256Z,89.35
2022-11-20T23:31:36.388Z,88.95
2022-11-20T23:34:05.275Z,88.83
2022-11-20T23:36:33.290Z,88.93
2022-11-20T23:39:01.266Z,89.00
2022-11-20T23:41:29.113Z,88.92
2022-11-20T23:43:56.960Z,88.91
2022-11-20T23:46:25.416Z,89.00
2022-11-20T23:48:53.340Z,89.34
2022-11-20T23:51:21.175Z,89.65
2022-11-20T23:53:49.116Z,89.39
2022-11-20T23:56:17.024Z,89.42
2022-11-20T23:58:44.884Z,89.53
